sensor_id;sensor_type;location;lat;lon;timestamp;pressure;altitude;pressure_sealevel;temperature
48003;BMP280;33768;48.578;11.574;2024-03-29T00:02:28;95170.69;;;5.26
48003;BMP280;33768;48.578;11.574;2024-03-29T00:05:36;95169.88;;;5.31
48003;BMP280;33768;48.578;11.574;2024-03-29T00:08:40;95163.84;;;5.38
48003;BMP280;33768;48.578;11.574;2024-03-29T00:11:44;95160.72;;;5.47
48003;BMP280;33768;48.578;11.574;2024-03-29T00:14:48;95146.66;;;5.48
48003;BMP280;33768;48.578;11.574;2024-03-29T00:17:53;95148.13;;;5.49
48003;BMP280;33768;48.578;11.574;2024-03-29T00:20:57;95147.00;;;5.45
48003;BMP280;33768;48.578;11.574;2024-03-29T00:24:01;95144.59;;;5.41
48003;BMP280;33768;48.578;11.574;2024-03-29T00:27:05;95147.63;;;5.38
48003;BMP280;33768;48.578;11.574;2024-03-29T00:30:10;95139.06;;;5.34
48003;BMP280;33768;48.578;11.574;2024-03-29T00:33:14;95136.69;;;5.30
48003;BMP280;33768;48.578;11.574;2024-03-29T00:36:18;95132.09;;;5.26
48003;BMP280;33768;48.578;11.574;2024-03-29T00:39:23;95137.63;;;5.20
48003;BMP280;33768;48.578;11.574;2024-03-29T00:42:27;95148.75;;;5.17
48003;BMP280;33768;48.578;11.574;2024-03-29T00:45:31;95148.75;;;5.17
48003;BMP280;33768;48.578;11.574;2024-03-29T00:48:35;95160.41;;;5.12
48003;BMP280;33768;48.578;11.574;2024-03-29T00:51:39;95146.88;;;5.12
48003;BMP280;33768;48.578;11.574;2024-03-29T00:54:44;95145.41;;;5.11
48003;BMP280;33768;48.578;11.574;2024-03-29T00:57:48;95143.44;;;5.11
48003;BMP280;33768;48.578;11.574;2024-03-29T01:00:52;95125.53;;;5.08
48003;BMP280;33768;48.578;11.574;2024-03-29T01:03:56;95113.78;;;5.06
48003;BMP280;33768;48.578;11.574;2024-03-29T01:07:00;95110.34;;;5.05
48003;BMP280;33768;48.578;11.574;2024-03-29T01:10:05;95107.53;;;4.98
48003;BMP280;33768;48.578;11.574;2024-03-29T01:13:09;95098.28;;;4.94
48003;BMP280;33768;48.578;11.574;2024-03-29T01:16:13;95085.06;;;4.90
48003;BMP280;33768;48.578;11.574;2024-03-29T01:19:17;95109.72;;;4.87
48003;BMP280;33768;48.578;11.574;2024-03-29T01:22:22;95085.19;;;4.85
48003;BMP280;33768;48.578;11.574;2024-03-29T01:25:26;95081.31;;;4.80
48003;BMP280;33768;48.578;11.574;2024-03-29T01:28:31;95058.25;;;4.79
48003;BMP280;33768;48.578;11.574;2024-03-29T01:31:36;95051.38;;;4.78
48003;BMP280;33768;48.578;11.574;2024-03-29T01:34:40;95041.22;;;4.71
48003;BMP280;33768;48.578;11.574;2024-03-29T01:37:44;95045.56;;;4.62
48003;BMP280;33768;48.578;11.574;2024-03-29T01:40:48;95063.81;;;4.56
48003;BMP280;33768;48.578;11.574;2024-03-29T01:43:53;95061.66;;;4.54
48003;BMP280;33768;48.578;11.574;2024-03-29T01:46:58;95066.34;;;4.54
48003;BMP280;33768;48.578;11.574;2024-03-29T01:50:03;95055.09;;;4.50
48003;BMP280;33768;48.578;11.574;2024-03-29T01:53:08;95055.09;;;4.50
48003;BMP280;33768;48.578;11.574;2024-03-29T01:56:13;95050.00;;;4.46
48003;BMP280;33768;48.578;11.574;2024-03-29T01:59:18;95049.25;;;4.46
48003;BMP280;33768;48.578;11.574;2024-03-29T02:02:23;95044.06;;;4.48
48003;BMP280;33768;48.578;11.574;2024-03-29T02:05:27;95042.09;;;4.48
48003;BMP280;33768;48.578;11.574;2024-03-29T02:08:32;95041.16;;;4.46
48003;BMP280;33768;48.578;11.574;2024-03-29T02:11:37;95029.13;;;4.47
48003;BMP280;33768;48.578;11.574;2024-03-29T02:14:42;95020.19;;;4.52
48003;BMP280;33768;48.578;11.574;2024-03-29T02:17:46;95026.00;;;4.56
48003;BMP280;33768;48.578;11.574;2024-03-29T02:20:50;95013.75;;;4.55
48003;BMP280;33768;48.578;11.574;2024-03-29T02:24:21;95005.03;;;4.49
48003;BMP280;33768;48.578;11.574;2024-03-29T02:27:25;95011.25;;;4.44
48003;BMP280;33768;48.578;11.574;2024-03-29T02:30:30;95017.69;;;4.41
48003;BMP280;33768;48.578;11.574;2024-03-29T02:33:34;95024.00;;;4.43
48003;BMP280;33768;48.578;11.574;2024-03-29T02:36:38;95024.75;;;4.44
48003;BMP280;33768;48.578;11.574;2024-03-29T02:39:43;95034.53;;;4.47
48003;BMP280;33768;48.578;11.574;2024-03-29T02:42:48;95026.41;;;4.47
48003;BMP280;33768;48.578;11.574;2024-03-29T02:45:52;95031.28;;;4.48
48003;BMP280;33768;48.578;11.574;2024-03-29T02:48:56;95030.56;;;4.48
48003;BMP280;33768;48.578;11.574;2024-03-29T02:52:00;95032.97;;;4.51
48003;BMP280;33768;48.578;11.574;2024-03-29T02:55:05;95035.97;;;4.48
48003;BMP280;33768;48.578;11.574;2024-03-29T02:58:09;95038.44;;;4.46
48003;BMP280;33768;48.578;11.574;2024-03-29T03:01:13;95021.13;;;4.54
48003;BMP280;33768;48.578;11.574;2024-03-29T03:04:17;95018.81;;;4.58
48003;BMP280;33768;48.578;11.574;2024-03-29T03:07:21;95019.25;;;4.62
48003;BMP280;33768;48.578;11.574;2024-03-29T03:10:47;95020.41;;;4.67
48003;BMP280;33768;48.578;11.574;2024-03-29T03:14:03;95012.72;;;4.70
48003;BMP280;33768;48.578;11.574;2024-03-29T03:17:07;95006.06;;;4.71
48003;BMP280;33768;48.578;11.574;2024-03-29T03:20:11;95007.13;;;4.81
48003;BMP280;33768;48.578;11.574;2024-03-29T03:23:17;95018.75;;;4.89
48003;BMP280;33768;48.578;11.574;2024-03-29T03:26:21;95005.13;;;4.95
48003;BMP280;33768;48.578;11.574;2024-03-29T03:29:26;95014.38;;;4.99
48003;BMP280;33768;48.578;11.574;2024-03-29T03:32:31;95013.13;;;5.00
48003;BMP280;33768;48.578;11.574;2024-03-29T03:35:35;94997.94;;;4.97
48003;BMP280;33768;48.578;11.574;2024-03-29T03:38:39;94994.00;;;4.98
48003;BMP280;33768;48.578;11.574;2024-03-29T03:41:43;94981.94;;;4.99
48003;BMP280;33768;48.578;11.574;2024-03-29T03:44:48;94996.06;;;4.92
48003;BMP280;33768;48.578;11.574;2024-03-29T03:47:52;94993.88;;;4.91
48003;BMP280;33768;48.578;11.574;2024-03-29T03:50:56;95008.78;;;4.84
48003;BMP280;33768;48.578;11.574;2024-03-29T03:54:00;95003.47;;;4.79
48003;BMP280;33768;48.578;11.574;2024-03-29T03:57:04;95003.25;;;4.77
48003;BMP280;33768;48.578;11.574;2024-03-29T04:00:09;95006.47;;;4.75
48003;BMP280;33768;48.578;11.574;2024-03-29T04:03:17;95010.53;;;4.69
48003;BMP280;33768;48.578;11.574;2024-03-29T04:06:21;95004.09;;;4.59
48003;BMP280;33768;48.578;11.574;2024-03-29T04:09:25;95004.59;;;4.58
48003;BMP280;33768;48.578;11.574;2024-03-29T04:12:29;94985.28;;;4.54
48003;BMP280;33768;48.578;11.574;2024-03-29T04:15:33;94975.09;;;4.47
48003;BMP280;33768;48.578;11.574;2024-03-29T04:18:38;94975.50;;;4.51
48003;BMP280;33768;48.578;11.574;2024-03-29T04:21:42;94972.16;;;4.45
48003;BMP280;33768;48.578;11.574;2024-03-29T04:24:46;94967.38;;;4.38
48003;BMP280;33768;48.578;11.574;2024-03-29T04:27:50;94950.44;;;4.37
48003;BMP280;33768;48.578;11.574;2024-03-29T04:30:58;94961.56;;;4.34
48003;BMP280;33768;48.578;11.574;2024-03-29T04:34:02;94944.94;;;4.30
48003;BMP280;33768;48.578;11.574;2024-03-29T04:37:07;94934.56;;;4.34
48003;BMP280;33768;48.578;11.574;2024-03-29T04:40:11;94944.84;;;4.35
48003;BMP280;33768;48.578;11.574;2024-03-29T04:43:15;94948.06;;;4.34
48003;BMP280;33768;48.578;11.574;2024-03-29T04:46:19;94958.66;;;4.32
48003;BMP280;33768;48.578;11.574;2024-03-29T04:49:23;94957.00;;;4.42
48003;BMP280;33768;48.578;11.574;2024-03-29T04:52:43;94954.72;;;4.59
48003;BMP280;33768;48.578;11.574;2024-03-29T04:55:53;94951.38;;;4.78
48003;BMP280;33768;48.578;11.574;2024-03-29T04:58:58;94961.53;;;4.98
48003;BMP280;33768;48.578;11.574;2024-03-29T05:02:02;94955.50;;;5.05
48003;BMP280;33768;48.578;11.574;2024-03-29T05:05:07;94942.06;;;5.12
48003;BMP280;33768;48.578;11.574;2024-03-29T05:08:11;94951.72;;;5.21
48003;BMP280;33768;48.578;11.574;2024-03-29T05:11:15;94966.06;;;5.28
48003;BMP280;33768;48.578;11.574;2024-03-29T05:14:20;94960.28;;;5.45
48003;BMP280;33768;48.578;11.574;2024-03-29T05:17:26;94970.28;;;5.83
48003;BMP280;33768;48.578;11.574;2024-03-29T05:20:31;94944.13;;;6.05
48003;BMP280;33768;48.578;11.574;2024-03-29T05:23:35;94951.66;;;6.27
48003;BMP280;33768;48.578;11.574;2024-03-29T05:26:39;94963.78;;;6.26
48003;BMP280;33768;48.578;11.574;2024-03-29T05:29:43;94954.72;;;6.23
48003;BMP280;33768;48.578;11.574;2024-03-29T05:32:47;94932.91;;;6.29
48003;BMP280;33768;48.578;11.574;2024-03-29T05:35:51;94913.91;;;6.49
48003;BMP280;33768;48.578;11.574;2024-03-29T05:38:55;94911.56;;;6.81
48003;BMP280;33768;48.578;11.574;2024-03-29T05:42:00;94910.16;;;6.59
48003;BMP280;33768;48.578;11.574;2024-03-29T05:45:04;94924.13;;;6.36
48003;BMP280;33768;48.578;11.574;2024-03-29T05:48:09;94921.16;;;6.26
48003;BMP280;33768;48.578;11.574;2024-03-29T05:51:14;94911.53;;;6.18
48003;BMP280;33768;48.578;11.574;2024-03-29T05:54:18;94896.28;;;6.08
48003;BMP280;33768;48.578;11.574;2024-03-29T05:57:22;94907.28;;;6.10
48003;BMP280;33768;48.578;11.574;2024-03-29T06:00:32;94906.84;;;6.46
48003;BMP280;33768;48.578;11.574;2024-03-29T06:03:38;94916.06;;;6.78
48003;BMP280;33768;48.578;11.574;2024-03-29T06:06:42;94914.31;;;6.95
48003;BMP280;33768;48.578;11.574;2024-03-29T06:09:47;94929.34;;;6.96
48003;BMP280;33768;48.578;11.574;2024-03-29T06:12:51;94938.91;;;6.97
48003;BMP280;33768;48.578;11.574;2024-03-29T06:15:55;94964.25;;;7.00
48003;BMP280;33768;48.578;11.574;2024-03-29T06:19:18;94973.53;;;7.12
48003;BMP280;33768;48.578;11.574;2024-03-29T06:22:22;94975.41;;;7.24
48003;BMP280;33768;48.578;11.574;2024-03-29T06:25:29;94979.06;;;7.34
48003;BMP280;33768;48.578;11.574;2024-03-29T06:28:33;94993.38;;;7.42
48003;BMP280;33768;48.578;11.574;2024-03-29T06:31:38;94993.41;;;7.49
48003;BMP280;33768;48.578;11.574;2024-03-29T06:34:42;94996.47;;;7.53
48003;BMP280;33768;48.578;11.574;2024-03-29T06:37:46;94994.50;;;7.53
48003;BMP280;33768;48.578;11.574;2024-03-29T06:40:50;94998.47;;;7.52
48003;BMP280;33768;48.578;11.574;2024-03-29T06:43:54;94996.47;;;7.53
48003;BMP280;33768;48.578;11.574;2024-03-29T06:46:59;94995.19;;;7.47
48003;BMP280;33768;48.578;11.574;2024-03-29T06:50:06;94980.34;;;7.40
48003;BMP280;33768;48.578;11.574;2024-03-29T06:53:10;94965.81;;;7.30
48003;BMP280;33768;48.578;11.574;2024-03-29T06:56:14;94974.84;;;7.25
48003;BMP280;33768;48.578;11.574;2024-03-29T06:59:19;94955.84;;;7.25
48003;BMP280;33768;48.578;11.574;2024-03-29T07:02:24;94951.16;;;7.26
48003;BMP280;33768;48.578;11.574;2024-03-29T07:05:28;94952.81;;;7.36
48003;BMP280;33768;48.578;11.574;2024-03-29T07:08:32;94957.94;;;7.47
48003;BMP280;33768;48.578;11.574;2024-03-29T07:11:36;94948.88;;;7.52
48003;BMP280;33768;48.578;11.574;2024-03-29T07:14:47;94948.03;;;7.72
48003;BMP280;33768;48.578;11.574;2024-03-29T07:17:51;94941.34;;;7.80
48003;BMP280;33768;48.578;11.574;2024-03-29T07:21:33;94940.47;;;7.92
48003;BMP280;33768;48.578;11.574;2024-03-29T07:30:13;94955.44;;;8.97
48003;BMP280;33768;48.578;11.574;2024-03-29T07:38:38;94972.88;;;10.42
48003;BMP280;33768;48.578;11.574;2024-03-29T07:41:48;94955.00;;;10.89
48003;BMP280;33768;48.578;11.574;2024-03-29T07:46:35;94952.88;;;10.63
48003;BMP280;33768;48.578;11.574;2024-03-29T07:50:09;94962.94;;;10.94
48003;BMP280;33768;48.578;11.574;2024-03-29T07:58:26;94966.03;;;11.75
48003;BMP280;33768;48.578;11.574;2024-03-29T08:01:31;94968.53;;;11.63
48003;BMP280;33768;48.578;11.574;2024-03-29T08:04:35;94980.47;;;11.42
48003;BMP280;33768;48.578;11.574;2024-03-29T08:07:39;94980.66;;;11.36
48003;BMP280;33768;48.578;11.574;2024-03-29T08:10:44;94989.94;;;11.57
48003;BMP280;33768;48.578;11.574;2024-03-29T08:13:48;94981.81;;;11.93
48003;BMP280;33768;48.578;11.574;2024-03-29T08:16:52;94973.25;;;12.06
48003;BMP280;33768;48.578;11.574;2024-03-29T08:19:56;94977.59;;;12.09
48003;BMP280;33768;48.578;11.574;2024-03-29T08:23:00;94985.59;;;12.23
48003;BMP280;33768;48.578;11.574;2024-03-29T08:26:04;94974.88;;;12.44
48003;BMP280;33768;48.578;11.574;2024-03-29T08:29:08;94987.06;;;12.34
48003;BMP280;33768;48.578;11.574;2024-03-29T08:32:13;94996.91;;;12.46
48003;BMP280;33768;48.578;11.574;2024-03-29T08:35:17;94992.91;;;12.92
48003;BMP280;33768;48.578;11.574;2024-03-29T08:38:21;94991.09;;;13.50
48003;BMP280;33768;48.578;11.574;2024-03-29T08:41:25;94988.94;;;13.77
48003;BMP280;33768;48.578;11.574;2024-03-29T08:44:29;94997.72;;;13.75
48003;BMP280;33768;48.578;11.574;2024-03-29T08:47:34;94993.25;;;13.71
48003;BMP280;33768;48.578;11.574;2024-03-29T08:50:38;94997.88;;;13.49
48003;BMP280;33768;48.578;11.574;2024-03-29T08:53:42;95001.63;;;13.44
48003;BMP280;33768;48.578;11.574;2024-03-29T08:56:46;95020.09;;;13.63
48003;BMP280;33768;48.578;11.574;2024-03-29T08:59:50;95011.03;;;13.51
48003;BMP280;33768;48.578;11.574;2024-03-29T09:02:55;95019.91;;;13.14
48003;BMP280;33768;48.578;11.574;2024-03-29T09:06:00;95014.94;;;12.84
48003;BMP280;33768;48.578;11.574;2024-03-29T09:09:06;95016.66;;;12.80
48003;BMP280;33768;48.578;11.574;2024-03-29T09:16:04;95002.47;;;13.66
48003;BMP280;33768;48.578;11.574;2024-03-29T09:19:09;94990.69;;;13.54
48003;BMP280;33768;48.578;11.574;2024-03-29T09:22:13;94991.13;;;13.41
48003;BMP280;33768;48.578;11.574;2024-03-29T09:25:17;94987.03;;;13.14
48003;BMP280;33768;48.578;11.574;2024-03-29T09:28:22;94960.50;;;13.07
48003;BMP280;33768;48.578;11.574;2024-03-29T09:31:27;94953.88;;;13.01
48003;BMP280;33768;48.578;11.574;2024-03-29T09:34:31;94965.38;;;12.90
48003;BMP280;33768;48.578;11.574;2024-03-29T09:37:35;94968.41;;;12.94
48003;BMP280;33768;48.578;11.574;2024-03-29T09:40:40;94958.22;;;13.13
48003;BMP280;33768;48.578;11.574;2024-03-29T09:44:06;94967.88;;;13.23
48003;BMP280;33768;48.578;11.574;2024-03-29T09:47:37;94969.34;;;13.43
48003;BMP280;33768;48.578;11.574;2024-03-29T09:50:45;94962.97;;;13.50
48003;BMP280;33768;48.578;11.574;2024-03-29T09:53:54;94967.28;;;13.53
48003;BMP280;33768;48.578;11.574;2024-03-29T10:04:03;94970.59;;;13.98
48003;BMP280;33768;48.578;11.574;2024-03-29T10:08:04;94978.53;;;14.04
48003;BMP280;33768;48.578;11.574;2024-03-29T10:12:35;94979.16;;;14.32
48003;BMP280;33768;48.578;11.574;2024-03-29T10:37:07;94966.06;;;16.17
48003;BMP280;33768;48.578;11.574;2024-03-29T10:40:12;94952.44;;;16.19
48003;BMP280;33768;48.578;11.574;2024-03-29T10:43:20;94951.66;;;15.64
48003;BMP280;33768;48.578;11.574;2024-03-29T10:46:25;94959.88;;;15.52
48003;BMP280;33768;48.578;11.574;2024-03-29T10:49:33;94963.38;;;16.07
48003;BMP280;33768;48.578;11.574;2024-03-29T10:52:40;94972.00;;;17.02
48003;BMP280;33768;48.578;11.574;2024-03-29T10:55:45;94966.41;;;17.47
48003;BMP280;33768;48.578;11.574;2024-03-29T10:58:50;94959.03;;;17.63
48003;BMP280;33768;48.578;11.574;2024-03-29T11:01:59;94948.34;;;18.05
48003;BMP280;33768;48.578;11.574;2024-03-29T11:05:07;94943.38;;;18.79
48003;BMP280;33768;48.578;11.574;2024-03-29T11:08:16;94942.25;;;19.37
48003;BMP280;33768;48.578;11.574;2024-03-29T11:11:22;94953.84;;;19.07
48003;BMP280;33768;48.578;11.574;2024-03-29T11:14:41;94938.38;;;19.02
48003;BMP280;33768;48.578;11.574;2024-03-29T11:17:47;94939.00;;;19.01
48003;BMP280;33768;48.578;11.574;2024-03-29T11:20:51;94938.13;;;18.58
48003;BMP280;33768;48.578;11.574;2024-03-29T11:23:56;94928.25;;;18.93
48003;BMP280;33768;48.578;11.574;2024-03-29T11:32:33;94935.06;;;17.90
48003;BMP280;33768;48.578;11.574;2024-03-29T11:35:40;94928.38;;;17.57
48003;BMP280;33768;48.578;11.574;2024-03-29T11:38:45;94918.56;;;18.03
48003;BMP280;33768;48.578;11.574;2024-03-29T11:50:13;94890.09;;;17.87
48003;BMP280;33768;48.578;11.574;2024-03-29T11:53:21;94893.06;;;17.67
48003;BMP280;33768;48.578;11.574;2024-03-29T11:56:25;94887.88;;;18.35
48003;BMP280;33768;48.578;11.574;2024-03-29T11:59:55;94880.75;;;18.83
48003;BMP280;33768;48.578;11.574;2024-03-29T12:03:06;94870.97;;;19.93
48003;BMP280;33768;48.578;11.574;2024-03-29T12:06:10;94867.53;;;20.23
48003;BMP280;33768;48.578;11.574;2024-03-29T12:09:41;94868.16;;;20.06
48003;BMP280;33768;48.578;11.574;2024-03-29T12:31:21;94845.59;;;19.12
48003;BMP280;33768;48.578;11.574;2024-03-29T12:34:54;94824.88;;;18.98
48003;BMP280;33768;48.578;11.574;2024-03-29T12:37:59;94828.06;;;18.93
48003;BMP280;33768;48.578;11.574;2024-03-29T12:41:04;94819.94;;;18.83
48003;BMP280;33768;48.578;11.574;2024-03-29T12:44:08;94814.03;;;18.76
48003;BMP280;33768;48.578;11.574;2024-03-29T12:47:13;94813.31;;;18.48
48003;BMP280;33768;48.578;11.574;2024-03-29T12:50:30;94797.97;;;18.32
48003;BMP280;33768;48.578;11.574;2024-03-29T12:53:37;94791.94;;;18.49
48003;BMP280;33768;48.578;11.574;2024-03-29T12:56:42;94792.16;;;18.53
48003;BMP280;33768;48.578;11.574;2024-03-29T12:59:45;94783.22;;;18.54
48003;BMP280;33768;48.578;11.574;2024-03-29T13:02:51;94769.06;;;19.02
48003;BMP280;33768;48.578;11.574;2024-03-29T13:05:55;94766.63;;;18.81
48003;BMP280;33768;48.578;11.574;2024-03-29T13:09:00;94754.75;;;18.92
48003;BMP280;33768;48.578;11.574;2024-03-29T13:12:04;94761.69;;;19.50
48003;BMP280;33768;48.578;11.574;2024-03-29T13:15:38;94754.53;;;20.19
48003;BMP280;33768;48.578;11.574;2024-03-29T13:18:54;94748.31;;;20.51
48003;BMP280;33768;48.578;11.574;2024-03-29T13:21:58;94749.47;;;20.94
48003;BMP280;33768;48.578;11.574;2024-03-29T13:25:03;94757.50;;;20.88
48003;BMP280;33768;48.578;11.574;2024-03-29T13:28:09;94754.16;;;20.27
48003;BMP280;33768;48.578;11.574;2024-03-29T13:31:14;94749.28;;;20.58
48003;BMP280;33768;48.578;11.574;2024-03-29T13:34:19;94738.84;;;20.56
48003;BMP280;33768;48.578;11.574;2024-03-29T13:37:23;94735.81;;;20.83
48003;BMP280;33768;48.578;11.574;2024-03-29T13:40:31;94732.09;;;20.94
48003;BMP280;33768;48.578;11.574;2024-03-29T13:43:36;94729.34;;;21.11
48003;BMP280;33768;48.578;11.574;2024-03-29T13:46:44;94729.34;;;21.45
48003;BMP280;33768;48.578;11.574;2024-03-29T13:49:49;94719.91;;;21.18
48003;BMP280;33768;48.578;11.574;2024-03-29T13:52:58;94720.47;;;21.14
48003;BMP280;33768;48.578;11.574;2024-03-29T13:56:02;94721.09;;;21.13
48003;BMP280;33768;48.578;11.574;2024-03-29T13:59:07;94711.25;;;21.44
48003;BMP280;33768;48.578;11.574;2024-03-29T14:02:12;94725.41;;;21.69
48003;BMP280;33768;48.578;11.574;2024-03-29T14:05:20;94726.31;;;21.93
48003;BMP280;33768;48.578;11.574;2024-03-29T14:08:25;94719.19;;;21.88
48003;BMP280;33768;48.578;11.574;2024-03-29T14:11:30;94729.41;;;22.01
48003;BMP280;33768;48.578;11.574;2024-03-29T14:14:34;94713.25;;;22.34
48003;BMP280;33768;48.578;11.574;2024-03-29T14:17:39;94705.91;;;22.42
48003;BMP280;33768;48.578;11.574;2024-03-29T14:20:45;94698.72;;;22.16
48003;BMP280;33768;48.578;11.574;2024-03-29T14:23:49;94698.47;;;21.91
48003;BMP280;33768;48.578;11.574;2024-03-29T14:26:57;94696.78;;;21.82
48003;BMP280;33768;48.578;11.574;2024-03-29T14:30:01;94708.72;;;21.67
48003;BMP280;33768;48.578;11.574;2024-03-29T14:33:06;94695.25;;;21.60
48003;BMP280;33768;48.578;11.574;2024-03-29T14:36:11;94692.09;;;21.50
48003;BMP280;33768;48.578;11.574;2024-03-29T14:39:16;94697.88;;;21.22
48003;BMP280;33768;48.578;11.574;2024-03-29T14:42:22;94685.34;;;21.03
48003;BMP280;33768;48.578;11.574;2024-03-29T14:45:27;94697.78;;;20.85
48003;BMP280;33768;48.578;11.574;2024-03-29T14:48:31;94685.75;;;20.62
48003;BMP280;33768;48.578;11.574;2024-03-29T14:51:36;94694.56;;;20.26
48003;BMP280;33768;48.578;11.574;2024-03-29T14:54:40;94688.31;;;20.25
48003;BMP280;33768;48.578;11.574;2024-03-29T14:57:44;94683.13;;;20.18
48003;BMP280;33768;48.578;11.574;2024-03-29T15:00:50;94686.91;;;20.09
48003;BMP280;33768;48.578;11.574;2024-03-29T15:03:55;94681.56;;;19.98
48003;BMP280;33768;48.578;11.574;2024-03-29T15:07:00;94681.88;;;19.88
48003;BMP280;33768;48.578;11.574;2024-03-29T15:10:05;94679.00;;;19.86
48003;BMP280;33768;48.578;11.574;2024-03-29T15:13:14;94681.03;;;20.01
48003;BMP280;33768;48.578;11.574;2024-03-29T15:16:18;94684.63;;;20.04
48003;BMP280;33768;48.578;11.574;2024-03-29T15:19:22;94686.66;;;20.03
48003;BMP280;33768;48.578;11.574;2024-03-29T15:22:26;94689.69;;;20.09
48003;BMP280;33768;48.578;11.574;2024-03-29T15:25:34;94689.00;;;20.08
48003;BMP280;33768;48.578;11.574;2024-03-29T15:28:38;94697.53;;;20.14
48003;BMP280;33768;48.578;11.574;2024-03-29T15:32:01;94700.06;;;20.08
48003;BMP280;33768;48.578;11.574;2024-03-29T15:35:05;94702.47;;;19.85
48003;BMP280;33768;48.578;11.574;2024-03-29T15:38:10;94692.72;;;19.54
48003;BMP280;33768;48.578;11.574;2024-03-29T15:41:17;94698.50;;;19.29
48003;BMP280;33768;48.578;11.574;2024-03-29T15:44:21;94703.09;;;19.10
48003;BMP280;33768;48.578;11.574;2024-03-29T15:47:25;94707.31;;;18.97
48003;BMP280;33768;48.578;11.574;2024-03-29T15:50:29;94703.34;;;18.87
48003;BMP280;33768;48.578;11.574;2024-03-29T15:53:35;94705.84;;;18.81
48003;BMP280;33768;48.578;11.574;2024-03-29T15:56:39;94706.25;;;18.76
48003;BMP280;33768;48.578;11.574;2024-03-29T15:59:43;94717.41;;;18.78
48003;BMP280;33768;48.578;11.574;2024-03-29T16:02:51;94712.78;;;18.82
48003;BMP280;33768;48.578;11.574;2024-03-29T16:05:56;94714.72;;;18.79
48003;BMP280;33768;48.578;11.574;2024-03-29T16:09:00;94713.09;;;18.75
48003;BMP280;33768;48.578;11.574;2024-03-29T16:12:06;94706.59;;;18.68
48003;BMP280;33768;48.578;11.574;2024-03-29T16:15:10;94711.91;;;18.64
48003;BMP280;33768;48.578;11.574;2024-03-29T16:18:15;94715.63;;;18.55
48003;BMP280;33768;48.578;11.574;2024-03-29T16:21:20;94717.28;;;18.47
48003;BMP280;33768;48.578;11.574;2024-03-29T16:24:24;94722.09;;;18.33
48003;BMP280;33768;48.578;11.574;2024-03-29T16:27:28;94710.13;;;18.29
48003;BMP280;33768;48.578;11.574;2024-03-29T16:30:32;94710.25;;;18.17
48003;BMP280;33768;48.578;11.574;2024-03-29T16:33:36;94707.38;;;18.02
48003;BMP280;33768;48.578;11.574;2024-03-29T16:36:47;94716.78;;;17.84
48003;BMP280;33768;48.578;11.574;2024-03-29T16:39:55;94722.25;;;17.71
48003;BMP280;33768;48.578;11.574;2024-03-29T16:42:59;94720.19;;;17.58
48003;BMP280;33768;48.578;11.574;2024-03-29T16:46:04;94724.78;;;17.53
48003;BMP280;33768;48.578;11.574;2024-03-29T16:49:11;94715.38;;;17.45
48003;BMP280;33768;48.578;11.574;2024-03-29T16:52:15;94715.81;;;17.28
48003;BMP280;33768;48.578;11.574;2024-03-29T16:55:24;94714.69;;;17.20
48003;BMP280;33768;48.578;11.574;2024-03-29T16:59:19;94709.97;;;16.98
48003;BMP280;33768;48.578;11.574;2024-03-29T17:02:25;94708.72;;;16.88
48003;BMP280;33768;48.578;11.574;2024-03-29T17:06:40;94704.97;;;16.70
48003;BMP280;33768;48.578;11.574;2024-03-29T17:10:58;94720.59;;;16.54
48003;BMP280;33768;48.578;11.574;2024-03-29T17:29:08;94715.53;;;15.92
48003;BMP280;33768;48.578;11.574;2024-03-29T17:37:18;94725.09;;;15.68
48003;BMP280;33768;48.578;11.574;2024-03-29T17:40:28;94722.69;;;15.52
48003;BMP280;33768;48.578;11.574;2024-03-29T17:43:37;94725.06;;;15.34
48003;BMP280;33768;48.578;11.574;2024-03-29T17:46:45;94728.16;;;15.18
48003;BMP280;33768;48.578;11.574;2024-03-29T17:50:10;94732.50;;;15.00
48003;BMP280;33768;48.578;11.574;2024-03-29T17:53:41;94735.41;;;14.81
48003;BMP280;33768;48.578;11.574;2024-03-29T17:58:36;94732.56;;;14.59
48003;BMP280;33768;48.578;11.574;2024-03-29T18:02:05;94735.75;;;14.44
48003;BMP280;33768;48.578;11.574;2024-03-29T18:05:46;94745.41;;;14.24
48003;BMP280;33768;48.578;11.574;2024-03-29T18:08:52;94744.63;;;14.12
48003;BMP280;33768;48.578;11.574;2024-03-29T18:12:21;94741.22;;;14.03
48003;BMP280;33768;48.578;11.574;2024-03-29T18:15:51;94744.94;;;14.07
48003;BMP280;33768;48.578;11.574;2024-03-29T18:19:43;94745.19;;;14.11
48003;BMP280;33768;48.578;11.574;2024-03-29T18:23:38;94750.63;;;14.20
48003;BMP280;33768;48.578;11.574;2024-03-29T18:27:40;94752.59;;;14.29
48003;BMP280;33768;48.578;11.574;2024-03-29T18:31:08;94758.41;;;14.44
48003;BMP280;33768;48.578;11.574;2024-03-29T18:34:18;94767.94;;;14.64
48003;BMP280;33768;48.578;11.574;2024-03-29T18:37:25;94767.44;;;14.88
48003;BMP280;33768;48.578;11.574;2024-03-29T18:40:29;94765.69;;;15.04
48003;BMP280;33768;48.578;11.574;2024-03-29T18:43:34;94769.28;;;15.06
48003;BMP280;33768;48.578;11.574;2024-03-29T18:46:38;94779.16;;;15.21
48003;BMP280;33768;48.578;11.574;2024-03-29T18:49:42;94774.28;;;15.31
48003;BMP280;33768;48.578;11.574;2024-03-29T18:53:07;94777.63;;;15.29
48003;BMP280;33768;48.578;11.574;2024-03-29T19:05:10;94788.28;;;15.34
48003;BMP280;33768;48.578;11.574;2024-03-29T19:08:17;94795.69;;;15.32
48003;BMP280;33768;48.578;11.574;2024-03-29T19:11:21;94787.94;;;15.40
48003;BMP280;33768;48.578;11.574;2024-03-29T19:14:27;94785.78;;;15.38
48003;BMP280;33768;48.578;11.574;2024-03-29T19:17:32;94792.25;;;15.43
48003;BMP280;33768;48.578;11.574;2024-03-29T19:20:37;94783.16;;;15.40
48003;BMP280;33768;48.578;11.574;2024-03-29T19:23:43;94784.09;;;15.33
48003;BMP280;33768;48.578;11.574;2024-03-29T19:26:52;94784.22;;;15.35
48003;BMP280;33768;48.578;11.574;2024-03-29T19:30:00;94793.56;;;15.42
48003;BMP280;33768;48.578;11.574;2024-03-29T19:33:04;94795.25;;;15.47
48003;BMP280;33768;48.578;11.574;2024-03-29T19:36:08;94794.41;;;15.44
48003;BMP280;33768;48.578;11.574;2024-03-29T19:39:38;94796.53;;;15.34
48003;BMP280;33768;48.578;11.574;2024-03-29T19:42:42;94797.72;;;15.32
48003;BMP280;33768;48.578;11.574;2024-03-29T19:45:46;94811.44;;;15.32
48003;BMP280;33768;48.578;11.574;2024-03-29T19:48:50;94814.19;;;15.32